Time;durP1;ratioP1;P1;durP2;ratioP2;P2;SDS_P1;SDS_P2;PMS_P1;PMS_P2;Temp;Humidity;BMP_temperature;BMP_pressure;BME280_temperature;BME280_humidity;BME280_pressure;Samples;Min_cycle;Max_cycle;Signal;HPM_P1;HPM_P2
2020/12/17 00:00:33;;;;;;;107.78;44.27;;;;;;;6.37;84.92;101592.38;1653983;85;25851;-78
2020/12/17 00:03:02;;;;;;;102.22;43.60;;;;;;;6.36;84.98;101596.85;1655507;85;26022;-78
2020/12/17 00:05:29;;;;;;;110.50;47.13;;;;;;;6.37;85.07;101595.04;1631100;85;28683;-78
2020/12/17 00:07:57;;;;;;;111.95;46.20;;;;;;;6.39;85.06;101595.75;1648881;85;25797;-78
2020/12/17 00:10:24;;;;;;;107.95;47.62;;;;;;;6.38;85.00;101589.58;1653515;85;26496;-78
2020/12/17 00:12:51;;;;;;;101.85;44.50;;;;;;;6.40;85.04;101589.43;1646934;85;26608;-78
2020/12/17 00:15:20;;;;;;;113.03;48.87;;;;;;;6.43;85.06;101588.69;1631561;85;25759;-78
2020/12/17 00:17:51;;;;;;;107.87;47.33;;;;;;;6.43;84.93;101595.83;1662590;85;28344;-78
2020/12/17 00:20:21;;;;;;;105.72;45.55;;;;;;;6.43;84.96;101588.69;1650942;85;26494;-78
2020/12/17 00:22:49;;;;;;;97.83;45.97;;;;;;;6.44;84.95;101594.83;1626521;85;25781;-78
2020/12/17 00:27:54;;;;;;;102.53;44.75;;;;;;;6.47;84.84;101606.55;1810722;77;25332;-78
2020/12/17 00:30:22;;;;;;;107.72;45.75;;;;;;;6.44;84.94;101609.47;1725355;80;25792;-78
2020/12/17 00:32:49;;;;;;;99.52;43.05;;;;;;;6.43;84.83;101605.98;1724945;80;28545;-78
2020/12/17 00:35:17;;;;;;;94.35;43.80;;;;;;;6.43;84.86;101607.80;1747919;80;25799;-78
2020/12/17 00:37:44;;;;;;;90.83;42.38;;;;;;;6.43;84.74;101617.97;1778006;80;26311;-78
2020/12/17 00:40:15;;;;;;;99.17;44.38;;;;;;;6.41;84.70;101611.94;1723269;81;26307;-78
2020/12/17 00:42:44;;;;;;;100.85;44.90;;;;;;;6.43;84.80;101610.46;1702806;81;25361;-78
2020/12/17 00:45:13;;;;;;;95.13;42.30;;;;;;;6.44;84.79;101614.31;1748009;80;27533;-78
2020/12/17 00:47:41;;;;;;;95.70;41.90;;;;;;;6.45;84.76;101616.48;1770283;80;25718;-78
2020/12/17 00:50:11;;;;;;;103.75;44.83;;;;;;;6.44;84.63;101611.64;1723380;81;25729;-78
2020/12/17 00:52:41;;;;;;;104.17;44.87;;;;;;;6.43;84.55;101602.48;1723437;80;26220;-78
2020/12/17 00:55:09;;;;;;;99.32;45.33;;;;;;;6.43;84.62;101606.47;1750636;80;25756;-78
2020/12/17 00:57:37;;;;;;;102.00;46.45;;;;;;;6.44;84.58;101611.64;1779620;80;27523;-78
2020/12/17 01:00:07;;;;;;;105.52;45.52;;;;;;;6.45;84.58;101617.34;1721954;80;25808;-78
2020/12/17 01:02:34;;;;;;;106.97;46.87;;;;;;;6.46;84.57;101616.86;1748396;80;25759;-78
2020/12/17 01:05:04;;;;;;;105.12;46.28;;;;;;;6.44;84.54;101618.30;1771701;79;26091;-78
2020/12/17 01:07:31;;;;;;;107.72;48.38;;;;;;;6.44;84.42;101618.30;1778167;80;26067;-78
2020/12/17 01:09:59;;;;;;;123.42;50.90;;;;;;;6.44;84.45;101621.44;1724102;80;27615;-78
2020/12/17 01:12:27;;;;;;;109.87;48.33;;;;;;;6.44;84.39;101616.12;1750771;80;25750;-78
2020/12/17 01:14:54;;;;;;;107.58;47.53;;;;;;;6.44;84.39;101617.45;1773960;80;25362;-78
2020/12/17 01:17:22;;;;;;;101.18;46.18;;;;;;;6.43;84.40;101623.28;1777063;80;26321;-78
2020/12/17 01:19:50;;;;;;;101.82;45.17;;;;;;;6.46;84.45;101610.20;1723821;80;26170;-78
2020/12/17 01:22:17;;;;;;;100.22;46.63;;;;;;;6.47;84.40;101615.38;1748751;80;27522;-78
2020/12/17 01:24:44;;;;;;;93.37;44.70;;;;;;;6.48;84.38;101614.38;1723058;80;25837;-78
2020/12/17 01:27:12;;;;;;;91.65;44.83;;;;;;;6.47;84.35;101611.39;1778223;78;25891;-78
2020/12/17 01:29:39;;;;;;;93.40;45.12;;;;;;;6.49;84.32;101608.58;1724931;80;25879;-78
2020/12/17 01:32:06;;;;;;;97.75;45.88;;;;;;;6.48;84.23;101607.73;1725965;80;25696;-78
2020/12/17 01:34:34;;;;;;;101.95;48.05;;;;;;;6.47;84.23;101607.88;1726383;80;26724;-78
2020/12/17 01:37:01;;;;;;;103.55;48.05;;;;;;;6.46;84.23;101616.34;1749893;80;25747;-78
2020/12/17 01:39:29;;;;;;;97.10;44.45;;;;;;;6.42;84.23;101605.63;1729718;80;26364;-78
2020/12/17 01:41:56;;;;;;;101.10;46.33;;;;;;;6.42;84.28;101605.63;1777363;80;26054;-78
2020/12/17 01:44:23;;;;;;;105.20;47.35;;;;;;;6.45;84.38;101607.17;1744874;80;25712;-78
2020/12/17 01:46:53;;;;;;;107.75;47.83;;;;;;;6.43;84.27;101604.66;1751402;80;28436;-78
2020/12/17 01:49:25;;;;;;;102.43;47.50;;;;;;;6.45;84.29;101603.18;1771507;80;26237;-78
2020/12/17 01:51:53;;;;;;;107.27;46.63;;;;;;;6.45;84.26;101609.35;1745755;80;26493;-78
2020/12/17 01:54:22;;;;;;;101.58;45.90;;;;;;;6.45;84.16;101604.03;1770621;80;25814;-78
2020/12/17 01:57:02;;;;;;;96.30;44.10;;;;;;;6.45;84.29;101602.70;1749730;80;26137;-78
2020/12/17 01:59:44;;;;;;;103.75;47.58;;;;;;;6.43;84.14;101601.14;1773224;80;27546;-78
2020/12/17 02:02:19;;;;;;;99.22;46.13;;;;;;;6.48;84.29;101602.92;1854138;76;25738;-78
2020/12/17 02:04:47;;;;;;;105.27;48.48;;;;;;;6.42;84.29;101602.95;1796682;78;26436;-78
2020/12/17 02:07:15;;;;;;;104.00;46.35;;;;;;;6.44;84.27;101609.47;1764172;79;27534;-78
2020/12/17 02:09:43;;;;;;;91.28;44.48;;;;;;;6.45;84.25;101612.02;1721622;80;25754;-78
2020/12/17 02:12:11;;;;;;;104.45;49.18;;;;;;;6.41;84.08;101609.28;1717202;81;25884;-78
2020/12/17 02:14:38;;;;;;;102.07;46.13;;;;;;;6.40;84.19;101612.05;1753860;79;25958;-77
2020/12/17 02:17:05;;;;;;;104.45;47.78;;;;;;;6.41;84.27;101610.61;1727989;79;26449;-78
2020/12/17 02:19:33;;;;;;;110.78;51.02;;;;;;;6.43;84.37;101609.13;1754084;79;27583;-78
2020/12/17 02:22:00;;;;;;;115.00;52.38;;;;;;;6.45;84.30;101619.15;1744122;79;25782;-78
2020/12/17 02:24:27;;;;;;;111.30;50.08;;;;;;;6.44;84.26;101608.98;1785739;79;25872;-78
2020/12/17 02:26:55;;;;;;;115.45;51.75;;;;;;;6.44;84.22;101618.30;1726214;79;26393;-78
2020/12/17 02:29:22;;;;;;;105.17;49.55;;;;;;;6.44;84.16;101612.13;1752287;79;25719;-78
2020/12/17 02:31:49;;;;;;;115.97;49.63;;;;;;;6.43;84.09;101619.30;1751099;79;27319;-78
2020/12/17 02:34:17;;;;;;;97.42;46.13;;;;;;;6.40;84.04;101612.89;1780715;79;26450;-78
2020/12/17 02:36:44;;;;;;;95.12;44.08;;;;;;;6.37;83.97;101617.18;1727875;79;26000;-78
2020/12/17 02:39:11;;;;;;;99.92;45.67;;;;;;;6.32;83.91;101608.75;1751895;79;26398;-78
2020/12/17 02:41:39;;;;;;;98.97;47.78;;;;;;;6.28;84.09;101611.33;1750419;79;25845;-78
2020/12/17 02:44:07;;;;;;;95.35;45.55;;;;;;;6.29;84.24;101611.66;1778867;79;27596;-78
2020/12/17 02:46:34;;;;;;;86.95;42.50;;;;;;;6.28;84.28;101606.01;1754783;79;26221;-78
2020/12/17 02:49:02;;;;;;;89.62;42.50;;;;;;;6.29;84.27;101605.02;1750481;79;25801;-78
2020/12/17 02:51:29;;;;;;;91.72;44.00;;;;;;;6.28;84.26;101607.81;1725720;79;26548;-78
2020/12/17 02:53:56;;;;;;;94.25;46.15;;;;;;;6.30;84.29;101608.52;1785509;79;25987;-78
2020/12/17 02:56:24;;;;;;;92.02;42.00;;;;;;;6.29;84.25;101609.00;1749693;79;27605;-78
2020/12/17 02:58:51;;;;;;;90.92;42.00;;;;;;;6.28;84.21;101609.15;1721423;80;25918;-78
2020/12/17 03:01:19;;;;;;;92.72;42.48;;;;;;;6.27;84.27;101606.97;1732151;80;25830;-78
2020/12/17 03:03:46;;;;;;;93.15;44.33;;;;;;;6.24;84.21;101605.92;1748028;81;25857;-78
2020/12/17 03:06:13;;;;;;;100.07;45.45;;;;;;;6.22;84.19;101601.23;1717123;81;25757;-78
2020/12/17 03:08:41;;;;;;;101.97;45.85;;;;;;;6.22;84.33;101609.20;1736270;80;27682;-78
2020/12/17 03:11:09;;;;;;;90.85;44.63;;;;;;;6.22;84.31;101606.55;1717470;81;25837;-78
2020/12/17 03:13:36;;;;;;;98.35;46.25;;;;;;;6.23;84.38;101612.20;1705888;81;25763;-78
2020/12/17 03:16:03;;;;;;;103.87;47.43;;;;;;;6.24;84.41;101614.72;1705852;81;26604;-78
2020/12/17 03:18:31;;;;;;;102.67;48.35;;;;;;;6.26;84.48;101608.44;1721486;81;25804;-78
2020/12/17 03:20:58;;;;;;;102.62;46.92;;;;;;;6.28;84.41;101610.48;1744170;81;27309;-78
2020/12/17 03:23:25;;;;;;;102.67;46.55;;;;;;;6.27;84.43;101613.62;1762397;80;25719;-78
2020/12/17 03:25:53;;;;;;;108.03;48.02;;;;;;;6.28;84.40;101607.81;1710019;81;25681;-78
2020/12/17 03:28:20;;;;;;;121.77;61.00;;;;;;;6.26;84.30;101609.30;1717895;81;26137;-78
2020/12/17 03:30:47;;;;;;;112.28;54.15;;;;;;;6.26;84.42;101612.44;1717776;81;26430;-78
2020/12/17 03:33:15;;;;;;;103.07;49.03;;;;;;;6.27;84.41;101614.95;1750314;81;27532;-78
2020/12/17 03:35:42;;;;;;;108.32;50.83;;;;;;;6.24;84.26;101615.23;1650783;82;25877;-78
2020/12/17 03:38:10;;;;;;;96.32;46.05;;;;;;;6.21;84.29;101614.16;1684998;79;25804;-78
2020/12/17 03:40:37;;;;;;;103.32;48.50;;;;;;;6.18;84.34;101618.41;1725563;79;26115;-78
2020/12/17 03:43:04;;;;;;;92.20;45.25;;;;;;;6.19;84.52;101614.78;1755059;79;25796;-78
2020/12/17 03:45:32;;;;;;;96.65;46.53;;;;;;;6.22;84.61;101623.33;1696526;80;28494;-78
2020/12/17 03:47:59;;;;;;;102.15;48.48;;;;;;;6.23;84.41;101617.53;1720128;81;25859;-77
2020/12/17 03:50:26;;;;;;;105.27;49.80;;;;;;;6.20;84.41;101616.48;1715468;81;25768;-78
2020/12/17 03:52:54;;;;;;;99.77;47.38;;;;;;;6.16;84.37;101619.87;1746295;81;25822;-78
2020/12/17 03:55:21;;;;;;;103.10;47.43;;;;;;;6.14;84.46;101616.99;1712742;81;25867;-77
2020/12/17 03:57:48;;;;;;;103.87;46.70;;;;;;;6.15;84.58;101614.22;1716668;81;28423;-78
2020/12/17 04:00:16;;;;;;;105.07;48.90;;;;;;;6.16;84.51;101620.36;1764947;80;25860;-77
2020/12/17 04:02:43;;;;;;;106.97;47.93;;;;;;;6.12;84.48;101613.63;1754809;81;25841;-78
2020/12/17 04:05:10;;;;;;;106.17;47.35;;;;;;;6.13;84.56;101616.66;1708674;78;25768;-78
2020/12/17 04:07:38;;;;;;;102.82;47.80;;;;;;;6.12;84.62;101619.80;1722703;81;26480;-78
2020/12/17 04:10:05;;;;;;;94.72;48.48;;;;;;;6.12;84.64;101623.78;1726064;80;27321;-78
2020/12/17 04:12:32;;;;;;;102.60;44.93;;;;;;;6.14;84.71;101624.49;1754764;81;25780;-77
2020/12/17 04:15:00;;;;;;;104.05;46.68;;;;;;;6.17;84.78;101622.06;1701624;81;25830;-78
2020/12/17 04:17:27;;;;;;;97.65;46.83;;;;;;;6.17;84.64;101614.93;1789121;79;25834;-78
2020/12/17 04:19:54;;;;;;;100.12;47.35;;;;;;;6.17;84.65;101623.39;1756578;79;25790;-78
2020/12/17 04:22:22;;;;;;;107.85;49.35;;;;;;;6.18;84.68;101612.60;1784699;79;28413;-78
2020/12/17 04:24:49;;;;;;;106.95;49.13;;;;;;;6.16;84.64;101615.89;1760830;79;26509;-78
2020/12/17 04:27:17;;;;;;;106.15;48.90;;;;;;;6.16;84.68;101620.36;1719641;80;26765;-78
2020/12/17 04:29:44;;;;;;;104.35;49.63;;;;;;;6.20;84.71;101622.63;1719418;81;26586;-78
2020/12/17 04:32:12;;;;;;;112.65;52.27;;;;;;;6.20;84.58;101611.98;1750539;81;25745;-78
2020/12/17 04:34:39;;;;;;;110.08;47.03;;;;;;;6.22;84.62;101617.19;1743354;79;27522;-78
2020/12/17 04:37:07;;;;;;;113.75;50.67;;;;;;;6.20;84.50;101609.83;1720947;80;25819;-78
2020/12/17 04:39:34;;;;;;;113.17;51.98;;;;;;;6.20;84.66;101609.32;1720807;81;26586;-78
2020/12/17 04:42:02;;;;;;;120.77;52.78;;;;;;;6.22;84.67;101611.36;1746085;81;25727;-78
2020/12/17 04:44:30;;;;;;;118.10;51.45;;;;;;;6.23;84.63;101614.87;1683359;81;25949;-78
2020/12/17 04:47:02;;;;;;;112.22;52.75;;;;;;;6.22;84.62;101615.86;1736884;81;27608;-78
2020/12/17 04:49:41;;;;;;;119.20;54.70;;;;;;;6.21;84.61;101623.47;1689360;82;26517;-78
2020/12/17 04:52:09;;;;;;;114.42;52.23;;;;;;;6.23;84.71;101612.20;1748236;81;25729;-78
2020/12/17 04:54:37;;;;;;;109.50;51.55;;;;;;;6.22;84.59;101615.34;1718888;81;26511;-78
2020/12/17 04:57:13;;;;;;;101.45;48.58;;;;;;;6.23;84.62;101614.87;1720256;81;25789;-78
2020/12/17 04:59:50;;;;;;;98.92;47.17;;;;;;;6.19;84.42;101616.11;1727330;79;27091;-78
2020/12/17 05:02:21;;;;;;;104.75;49.25;;;;;;;6.16;84.46;101616.37;1786116;79;27420;-78
2020/12/17 05:04:51;;;;;;;109.27;48.98;;;;;;;6.14;84.58;101620.98;1745160;79;26491;-78
2020/12/17 05:07:22;;;;;;;109.97;47.70;;;;;;;6.16;84.66;101621.69;1759153;79;25417;-78
2020/12/17 05:09:51;;;;;;;94.13;46.33;;;;;;;6.15;84.65;101626.19;1743818;79;25802;-78
2020/12/17 05:12:19;;;;;;;106.90;47.83;;;;;;;6.14;84.62;101620.50;1788586;79;27530;-78
2020/12/17 05:14:48;;;;;;;101.02;46.60;;;;;;;6.16;84.75;101621.69;1742931;79;25375;-78
2020/12/17 05:17:15;;;;;;;99.87;49.60;;;;;;;6.18;84.83;101625.91;1764803;79;25731;-78
2020/12/17 05:19:44;;;;;;;105.78;51.55;;;;;;;6.21;84.76;101616.82;1769833;79;25808;-78
2020/12/17 05:22:14;;;;;;;91.32;46.60;;;;;;;6.24;84.76;101621.89;1788846;79;26397;-78
2020/12/17 05:24:46;;;;;;;95.30;44.83;;;;;;;6.21;84.63;101629.64;1739822;79;27558;-78
2020/12/17 05:27:14;;;;;;;88.07;43.50;;;;;;;6.19;84.59;101628.94;1763817;79;26104;-78
2020/12/17 05:29:43;;;;;;;97.50;45.67;;;;;;;6.19;84.60;101620.11;1764847;79;25756;-78
2020/12/17 05:32:14;;;;;;;90.67;43.23;;;;;;;6.15;84.55;101620.02;1784546;79;26384;-78
2020/12/17 05:34:42;;;;;;;91.63;45.88;;;;;;;6.16;84.66;101625.20;1772840;79;25390;-78
2020/12/17 05:37:10;;;;;;;85.28;44.88;;;;;;;6.17;84.62;101624.72;1771097;79;28264;-78
2020/12/17 05:39:43;;;;;;;91.37;45.90;;;;;;;6.17;84.64;101626.05;1786566;79;25806;-78
2020/12/17 05:42:13;;;;;;;89.67;43.50;;;;;;;6.16;84.67;101627.01;1740321;79;25850;-78
2020/12/17 05:44:40;;;;;;;78.83;40.08;;;;;;;6.14;84.66;101615.66;1768516;79;26092;-77
2020/12/17 05:47:13;;;;;;;87.80;42.53;;;;;;;6.17;84.72;101616.26;1746400;79;25908;-78
2020/12/17 05:49:41;;;;;;;83.33;39.45;;;;;;;6.16;84.67;101616.37;1771764;79;27536;-78
2020/12/17 05:52:22;;;;;;;80.47;38.88;;;;;;;6.17;84.71;101622.91;1764677;79;25773;-78
2020/12/17 05:57:42;;;;;;;83.60;39.88;;;;;;;6.29;84.74;101614.33;1772869;79;25762;-78
2020/12/17 06:00:10;;;;;;;74.07;36.17;;;;;;;6.24;84.68;101616.56;1719377;80;26660;-78
2020/12/17 06:02:37;;;;;;;78.67;37.70;;;;;;;6.23;84.63;101613.05;1653006;82;27762;-78
2020/12/17 06:05:13;;;;;;;77.67;37.10;;;;;;;6.19;84.33;101621.44;1633019;83;25995;-78
2020/12/17 06:10:27;;;;;;;77.37;37.60;;;;;;;6.19;84.49;101621.44;1785781;78;25747;-77
2020/12/17 06:13:00;;;;;;;75.78;35.17;;;;;;;6.12;84.58;101623.78;1761806;80;25934;-78
2020/12/17 06:15:32;;;;;;;72.27;35.40;;;;;;;6.12;84.67;101624.27;1722048;80;27481;-78
2020/12/17 06:18:03;;;;;;;72.97;35.87;;;;;;;6.13;84.72;101624.63;1708132;81;26109;-78
2020/12/17 06:20:33;;;;;;;73.25;34.88;;;;;;;6.15;84.78;101631.51;1701309;81;25916;-78
2020/12/17 06:23:03;;;;;;;70.37;34.58;;;;;;;6.17;84.75;101629.56;1700236;83;25883;-78
2020/12/17 06:25:41;;;;;;;71.55;34.73;;;;;;;6.24;84.77;101631.20;1835545;77;25712;-78
2020/12/17 06:28:40;;;;;;;75.15;36.45;;;;;;;6.22;84.84;101636.63;1795817;78;26271;-78
2020/12/17 06:31:07;;;;;;;68.85;33.08;;;;;;;6.25;84.81;101635.52;1762657;78;27393;-78
2020/12/17 06:33:35;;;;;;;68.62;34.67;;;;;;;6.24;84.63;101636.52;1771014;80;25860;-78
2020/12/17 06:36:08;;;;;;;76.77;36.15;;;;;;;6.21;84.61;101632.78;1738387;78;26456;-78
2020/12/17 06:38:38;;;;;;;65.92;32.88;;;;;;;6.21;84.64;101638.10;1764688;80;26369;-78
2020/12/17 06:41:17;;;;;;;67.35;33.02;;;;;;;6.19;84.68;101635.59;1720685;80;25725;-78
2020/12/17 06:43:45;;;;;;;67.82;32.48;;;;;;;6.19;84.68;101636.91;1702947;81;27536;-78
2020/12/17 06:46:36;;;;;;;62.08;31.77;;;;;;;6.19;84.80;101634.25;1724529;81;26416;-78
2020/12/17 06:49:07;;;;;;;67.20;32.88;;;;;;;6.21;84.82;101632.78;1769636;80;34911;-78
2020/12/17 06:51:38;;;;;;;66.47;31.55;;;;;;;6.21;84.74;101638.10;1683208;82;26135;-78
2020/12/17 06:54:20;;;;;;;63.63;32.73;;;;;;;6.22;84.73;101635.81;1725280;81;25387;-78
2020/12/17 06:57:12;;;;;;;67.08;33.80;;;;;;;6.20;84.70;101635.92;1721375;81;27528;-78
2020/12/17 06:59:44;;;;;;;70.78;33.13;;;;;;;6.21;84.70;101640.77;1744593;81;25913;-78
2020/12/17 07:02:20;;;;;;;70.25;36.03;;;;;;;6.20;84.71;101643.91;1723690;80;25922;-78
2020/12/17 07:04:51;;;;;;;73.57;36.23;;;;;;;6.19;84.76;101638.73;1731855;81;26164;-78
2020/12/17 07:07:23;;;;;;;68.83;34.73;;;;;;;6.19;84.68;101642.72;1757489;80;25799;-78
2020/12/17 07:09:54;;;;;;;66.07;34.10;;;;;;;6.16;84.68;101641.64;1743754;81;27531;-78
2020/12/17 07:12:39;;;;;;;64.10;32.45;;;;;;;6.17;84.84;101646.84;1677897;81;25884;-78
2020/12/17 07:15:32;;;;;;;63.55;32.35;;;;;;;6.19;84.85;101644.90;1693334;81;26601;-78
2020/12/17 07:18:25;;;;;;;65.60;32.95;;;;;;;6.20;84.81;101651.06;1727342;81;25815;-78
2020/12/17 07:21:07;;;;;;;63.98;33.58;;;;;;;6.22;84.83;101649.94;1741852;81;26153;-78
2020/12/17 07:23:41;;;;;;;63.20;32.35;;;;;;;6.20;84.90;101645.23;1695131;81;26838;-78
2020/12/17 07:26:12;;;;;;;68.07;34.10;;;;;;;6.22;84.89;101647.27;1718961;81;25775;-78
2020/12/17 07:28:40;;;;;;;71.92;36.75;;;;;;;6.19;84.72;101647.56;1726153;81;26137;-78
2020/12/17 07:31:09;;;;;;;66.20;34.63;;;;;;;6.20;84.86;101653.22;1746174;81;26021;-78
2020/12/17 07:33:42;;;;;;;72.45;37.48;;;;;;;6.23;84.89;101648.97;1721636;81;26125;-78
2020/12/17 07:36:12;;;;;;;68.22;36.35;;;;;;;6.26;84.92;101651.02;1712590;81;28866;-78
2020/12/17 07:38:40;;;;;;;78.70;42.62;;;;;;;6.30;84.98;101651.94;1733111;81;25825;-78
2020/12/17 07:41:24;;;;;;;64.82;35.03;;;;;;;6.33;84.88;101645.52;1735725;81;25798;-78
2020/12/17 07:43:51;;;;;;;62.95;33.60;;;;;;;6.31;84.79;101647.47;1724576;80;25769;-78
2020/12/17 07:46:40;;;;;;;71.12;38.02;;;;;;;6.31;84.84;101648.80;1711115;81;26028;-78
2020/12/17 07:49:30;;;;;;;65.87;35.00;;;;;;;6.36;84.85;101643.90;1694842;81;28348;-78
2020/12/17 07:51:57;;;;;;;89.15;45.40;;;;;;;6.35;84.74;101647.05;1739247;81;25900;-78
2020/12/17 07:54:26;;;;;;;77.03;39.80;;;;;;;6.36;84.87;101650.55;1675858;81;26549;-78
2020/12/17 07:57:01;;;;;;;81.25;44.65;;;;;;;6.37;84.83;101647.78;1715801;81;26085;-78
2020/12/17 07:59:28;;;;;;;85.92;46.42;;;;;;;6.36;84.76;101646.08;1709883;82;26113;-78
2020/12/17 08:02:04;;;;;;;80.70;42.40;;;;;;;6.35;84.70;101651.55;1743630;81;26915;-78
2020/12/17 08:04:34;;;;;;;90.92;46.33;;;;;;;6.32;84.66;101659.30;1718818;81;25956;-78
2020/12/17 08:07:09;;;;;;;80.10;40.45;;;;;;;6.34;84.87;101647.19;1717607;82;25754;-78
2020/12/17 08:09:36;;;;;;;79.40;38.02;;;;;;;6.34;84.76;101650.70;1715973;82;25386;-78
2020/12/17 08:12:10;;;;;;;75.25;40.15;;;;;;;6.34;84.76;101653.36;1738323;81;25766;-78
2020/12/17 08:14:37;;;;;;;75.67;38.33;;;;;;;6.34;84.81;101655.17;1683702;81;27569;-78
2020/12/17 08:17:09;;;;;;;73.75;37.20;;;;;;;6.36;84.87;101655.39;1709089;81;26657;-78
2020/12/17 08:19:37;;;;;;;82.60;40.40;;;;;;;6.36;84.83;101658.05;1732808;81;25747;-78
2020/12/17 08:22:04;;;;;;;73.72;37.63;;;;;;;6.36;84.76;101654.55;1743505;81;25886;-78
2020/12/17 08:24:32;;;;;;;79.27;41.25;;;;;;;6.38;84.97;101646.78;1676761;82;26125;-78
2020/12/17 08:27:00;;;;;;;90.92;45.88;;;;;;;6.40;84.85;101647.49;1691919;82;26708;-78
2020/12/17 08:29:28;;;;;;;92.35;42.73;;;;;;;6.43;84.93;101647.72;1745188;81;25873;-78
2020/12/17 08:31:56;;;;;;;95.35;44.93;;;;;;;6.44;84.93;101651.56;1738337;81;26569;-78
2020/12/17 08:34:23;;;;;;;143.10;73.30;;;;;;;6.47;84.92;101644.66;1693289;81;25859;-78
2020/12/17 08:36:50;;;;;;;134.43;68.78;;;;;;;6.47;84.82;101643.80;1709189;82;25406;-78
2020/12/17 08:39:21;;;;;;;124.53;70.25;;;;;;;6.48;84.91;101646.33;1701689;81;28339;-78
2020/12/17 08:41:52;;;;;;;94.05;46.30;;;;;;;6.44;84.72;101643.58;1743317;81;25752;-78
2020/12/17 08:44:30;;;;;;;94.07;46.13;;;;;;;6.44;84.75;101648.05;1734831;81;26460;-78
2020/12/17 08:47:00;;;;;;;100.33;45.48;;;;;;;6.44;84.81;101646.72;1707170;81;26022;-78
2020/12/17 08:49:28;;;;;;;93.52;46.15;;;;;;;6.48;84.95;101656.16;1741783;81;25932;-78
2020/12/17 08:51:56;;;;;;;78.33;40.58;;;;;;;6.51;84.95;101655.38;1714921;81;28080;-78
2020/12/17 08:54:26;;;;;;;78.22;42.00;;;;;;;6.53;84.98;101664.55;1672800;81;25829;-78
2020/12/17 08:57:01;;;;;;;75.72;42.10;;;;;;;6.54;84.87;101663.11;1715399;81;26396;-78
2020/12/17 08:59:28;;;;;;;72.67;37.80;;;;;;;6.56;84.90;101669.62;1732364;81;25889;-78
2020/12/17 09:01:57;;;;;;;73.83;38.65;;;;;;;6.57;84.78;101662.83;1743099;81;26008;-78
2020/12/17 09:04:26;;;;;;;72.03;36.53;;;;;;;6.58;84.83;101663.67;1696392;82;28602;-78
2020/12/17 09:07:01;;;;;;;72.40;37.27;;;;;;;6.61;84.92;101662.91;1695902;82;25813;-78
2020/12/17 09:09:33;;;;;;;67.70;36.25;;;;;;;6.62;84.73;101667.27;1699918;81;25795;-78
2020/12/17 09:12:01;;;;;;;65.25;35.80;;;;;;;6.60;84.71;101666.56;1738859;81;25772;-78
2020/12/17 09:14:31;;;;;;;71.40;37.03;;;;;;;6.60;84.84;101671.03;1673513;81;26440;-78
2020/12/17 09:17:10;;;;;;;72.50;37.83;;;;;;;6.63;84.93;101664.94;1694024;82;28499;-78
2020/12/17 09:19:38;;;;;;;66.97;35.05;;;;;;;6.64;84.72;101661.31;1705341;82;26129;-78
2020/12/17 09:22:05;;;;;;;75.62;37.33;;;;;;;6.65;84.77;101665.64;1722822;82;26046;-78
2020/12/17 09:24:36;;;;;;;68.37;36.40;;;;;;;6.66;84.71;101661.17;1679794;82;25949;-78
2020/12/17 09:27:28;;;;;;;71.85;38.48;;;;;;;6.67;84.73;101665.02;1724001;82;25844;-78
2020/12/17 09:30:13;;;;;;;73.02;38.73;;;;;;;6.67;84.73;101665.02;1725446;82;28287;-78
2020/12/17 09:32:51;;;;;;;76.42;38.08;;;;;;;6.69;84.72;101658.25;1717039;82;25949;-78
2020/12/17 09:35:20;;;;;;;75.32;37.23;;;;;;;6.70;84.68;101664.76;1688103;82;25865;-78
2020/12/17 09:38:01;;;;;;;73.60;38.60;;;;;;;6.69;84.59;101656.92;1685409;83;25849;-78
2020/12/17 09:40:40;;;;;;;70.28;38.20;;;;;;;6.78;84.58;101660.07;1830247;77;25599;-78
2020/12/17 09:43:10;;;;;;;;;;;;;;;6.74;84.61;101662.66;1805744;78;25793;-78
2020/12/17 09:45:48;;;;;;;74.27;40.45;;;;;;;6.76;84.55;101664.21;1764450;80;27595;-78
2020/12/17 09:48:31;;;;;;;79.70;40.17;;;;;;;6.74;84.52;101658.66;1766836;79;26101;-78
2020/12/17 09:51:03;;;;;;;76.37;38.78;;;;;;;6.75;84.32;101648.38;1786614;79;25834;-78
2020/12/17 09:53:34;;;;;;;73.80;39.20;;;;;;;6.76;84.40;101652.70;1745074;79;25727;-78
2020/12/17 09:56:01;;;;;;;79.65;39.45;;;;;;;6.73;84.40;101647.19;1733357;80;25855;-78
2020/12/17 09:58:28;;;;;;;80.38;40.98;;;;;;;6.74;84.36;101641.36;1790552;79;27522;-78
2020/12/17 10:00:56;;;;;;;77.40;40.28;;;;;;;6.74;84.28;101638.69;1767529;79;25809;-78
2020/12/17 10:03:23;;;;;;;82.82;42.88;;;;;;;6.75;84.42;101638.58;1735617;78;25998;-78
2020/12/17 10:05:51;;;;;;;87.67;45.80;;;;;;;6.74;84.27;101636.03;1732090;79;26108;-78
2020/12/17 10:08:18;;;;;;;78.30;40.90;;;;;;;6.73;84.27;101627.70;1762547;80;26122;-78
2020/12/17 10:10:45;;;;;;;79.00;41.23;;;;;;;6.70;84.33;101622.16;1772277;78;27902;-78
2020/12/17 10:13:13;;;;;;;83.60;41.50;;;;;;;6.75;84.53;101625.27;1757010;78;25839;-78
2020/12/17 10:15:40;;;;;;;78.75;40.88;;;;;;;6.76;84.41;101623.42;1750451;79;25726;-78
2020/12/17 10:18:08;;;;;;;82.12;43.60;;;;;;;6.79;84.52;101621.83;1769924;78;25889;-78
2020/12/17 10:20:35;;;;;;;85.03;44.63;;;;;;;6.81;84.54;101622.53;1762906;80;25857;-78
2020/12/17 10:23:04;;;;;;;82.25;43.45;;;;;;;6.86;84.61;101621.64;1768768;78;28362;-77
2020/12/17 10:25:32;;;;;;;78.95;40.85;;;;;;;6.87;84.43;101621.48;1767749;78;26121;-78
2020/12/17 10:28:00;;;;;;;74.75;41.28;;;;;;;6.89;84.42;101620.02;1730907;78;25889;-78
2020/12/17 10:30:29;;;;;;;81.22;42.13;;;;;;;6.89;84.38;101616.86;1802857;78;26072;-78
2020/12/17 10:32:57;;;;;;;73.90;38.98;;;;;;;6.89;84.32;101615.53;1745353;79;25959;-79
2020/12/17 10:35:25;;;;;;;74.22;39.40;;;;;;;6.89;84.34;101618.67;1753454;79;28516;-78
2020/12/17 10:37:53;;;;;;;74.72;39.00;;;;;;;6.91;84.43;101618.05;1769836;79;26460;-77
2020/12/17 10:40:22;;;;;;;76.67;39.10;;;;;;;6.94;84.52;101625.78;1763716;78;26162;-77
2020/12/17 10:42:49;;;;;;;70.50;38.20;;;;;;;6.93;84.48;101623.59;1774431;80;25775;-78
2020/12/17 10:45:18;;;;;;;67.85;36.23;;;;;;;6.98;84.52;101611.20;1766461;80;25756;-78
2020/12/17 10:47:45;;;;;;;67.87;37.17;;;;;;;7.00;84.43;101609.23;1741245;78;27611;-77
2020/12/17 10:50:14;;;;;;;66.10;35.10;;;;;;;7.03;84.37;101608.97;1768780;79;25876;-78
2020/12/17 10:52:44;;;;;;;64.67;34.60;;;;;;;7.07;84.39;101602.86;1717808;80;26503;-78
2020/12/17 10:55:12;;;;;;;60.75;34.03;;;;;;;7.09;84.23;101602.23;1717082;81;26196;-78
2020/12/17 10:57:42;;;;;;;63.90;35.58;;;;;;;7.12;84.32;101601.96;1707033;83;26148;-78
2020/12/17 11:00:09;;;;;;;61.90;33.45;;;;;;;7.15;84.30;101601.17;1728667;81;27221;-78
2020/12/17 11:02:36;;;;;;;63.28;35.03;;;;;;;7.18;84.26;101604.06;1729490;82;26266;-78
2020/12/17 11:05:04;;;;;;;60.20;33.50;;;;;;;7.21;84.14;101603.76;1730089;80;25740;-78
2020/12/17 11:07:31;;;;;;;64.40;35.00;;;;;;;7.23;84.00;101607.16;1762009;78;26298;-78
2020/12/17 11:09:59;;;;;;;61.48;33.30;;;;;;;7.23;83.94;101608.48;1791777;79;25689;-78
2020/12/17 11:12:26;;;;;;;61.90;33.02;;;;;;;7.22;83.83;101602.80;1717315;81;27590;-78
2020/12/17 11:14:54;;;;;;;66.15;35.60;;;;;;;7.23;83.83;101603.16;1696145;82;25913;-78
2020/12/17 11:17:21;;;;;;;65.83;34.67;;;;;;;7.20;83.69;101600.77;1767577;80;25662;-78
2020/12/17 11:19:49;;;;;;;62.23;35.92;;;;;;;7.15;83.45;101595.85;1771067;78;25828;-78
2020/12/17 11:22:17;;;;;;;64.80;34.23;;;;;;;7.17;83.73;101599.70;1765443;78;26153;-77
2020/12/17 11:24:45;;;;;;;62.70;34.92;;;;;;;7.19;83.76;101597.25;1793150;78;27548;-78
2020/12/17 11:27:14;;;;;;;61.65;34.13;;;;;;;7.23;83.74;101597.83;1776414;79;26175;-79
2020/12/17 11:29:41;;;;;;;64.17;35.85;;;;;;;7.22;83.60;101593.47;1775499;78;25413;-80
2020/12/17 11:32:09;;;;;;;66.67;35.80;;;;;;;7.24;83.64;101598.16;1756053;78;25852;-80
2020/12/17 11:34:38;;;;;;;66.15;33.58;;;;;;;7.25;83.74;101592.69;1752474;78;26526;-80